1,427,836개(14397/71392페이지)
LECTURE
번호 제목 글쓴이 조회 날짜
1139916 Bermain Gambling Di Tempat Poker Uang As RaoLe8291 8 2022.03.29 16:46
1139915 MENGUASAI Teknik MANIAK DALAM BERMAIN PO SecherEskesen3097 5 2022.03.29 16:46
1139914 Sports Betting - How To Bet Teasers PaghRooney8526 3 2022.03.29 16:46
1139913 strategi tundukkan mesin slots online te 사진 BurtonAlford3111 5 2022.03.29 16:45
1139912 bagaimana semestinya player bola online 사진 McCainOverby3410 6 2022.03.29 16:45
1139911 Situs Poker Online Dapat dipercaya di In HaganDideriksen6221 4 2022.03.29 16:45
1139910 How to Come Up Along with Creative Ideas MorrowHonore0690 7 2022.03.29 16:44
1139909 My Life, My Job, My Career: How 9 Simple 사진 HolmanHendrix1817 7 2022.03.29 16:44
1139908 Vtv3 Trực Tiếp Bóng Đá Hôm Nay 2021, Ngo EbsenVelez3900 7 2022.03.29 16:44
1139907 bagaimana mestinya player bola online me 사진 LangleyFog2440 4 2022.03.29 16:44
1139906 11 Ways to Completely Sabotage Your weig HaugaardLester3566 5 2022.03.29 16:44
1139905 Football Betting Lines: What Do They Mea BinderupThomsen7760 5 2022.03.29 16:43
1139904 Langkah Membuat Situs Judi Online Biar S 사진 CharlesJosefsen1235 8 2022.03.29 16:43
1139903 My Brothers English Subtitles FigueroaMercer7438 1 2022.03.29 16:43
1139902 There Are Ups And Downsides To Online Po EstesVoss8184 4 2022.03.29 16:43
1139901 Top 30 Funny Buy CBD Vape Oil UK Quotes MitchellLacroix2542 8 2022.03.29 16:43
1139900 Vì Sao Khi Xem Trực Tiếp Bóng Đá, Có Tv PetersonBarbee6665 6 2022.03.29 16:43
1139899 Cộng đồng massage Viet Nam JacobsonCobb8916 3 2022.03.29 16:42
1139898 9 Facts Everyone Should Know About Best 사진 PettySolomon9643 5 2022.03.29 16:42
1139897 bermacam bonus menarik dalam permainan s 사진 HolckSalinas0773 3 2022.03.29 16:42